Portada
METAR-TAF:

METAR-TAF

Aeroports :

Base aèria

Shizuhama, Japó

latitud: 34-49N, longitud: 138-18E, altitud: 7 m

Observació

L'informe es va fer fa 2 hores i 24 minuts, a les 04:32 UTC
Vent 7 kt del Nord-Est
Temperatura 15°C
Humitat 59%
Pressió 1020 hPa
Visibilitat 10 km o més
Escasses núvols a una alçada de 3000 ft
Núvols disperses a una alçada de 4000 ft
Cel ennuvolat a una alçada de 6000 ft
pluja

METAR: RJNY 050432Z 04007KT 9999 -RA FEW030 SCT040 BKN060 15/07 Q1020 RMK 1CU030 3SC040 6SC060 A3013

Hora: 15:56 (06:56 UTC)


TAF: manca

Observacions i pronòstics meteorològics de més de 4000 aeroports (METAR i TAF).

Les estacions disponibles són els punts grocs i vermells al mapa.

Posi el ratolí al punt desitjat per veure el nom de l'estació.

Feu clic per veure les observacions i els pronòstics meteorològics.

Per canviar el mapa: feu clic els botons verds amb una creu de color negre per apropar; al botó verd amb un guió per allunyar la imatge; o en les fletxes verdes per a mapes adjacents.


METAR-TAF: